Meteo Giornale » Osservazioni meteo Cile » Puerto Montt

ore: 22:00 - Osservazioni Meteo Puerto Montt
Lat. 41° 25' S Lon. 73° 5' W Alt. 85 metri s.l.m.

coperto

8 °C

Coperto

Temp. 24 Ore

0 °C

10 °C

Nord/Nord-Est

14.8 Km/h

Dew point 6 °C

Umidità 87 %

Visibilità  10 Km

Il sole sorge alle ore 07:18

Il sole tramonta alle ore 18:27

Data e Ora Cielo e Fenomeni T °C DP °C Um. % Pres. hPa Vis. km Vento km/h
Oggi h: 22:00 coperto Coperto 8 6 87 1022 10 N/NE 14.8
Oggi h: 21:00 coperto Coperto 8 6 87 1022 10 N/NE 13
Oggi h: 19:00 nuvoloso_piovaschi Pioggia 8 7 93 1022 10 O 9.3
Oggi h: 18:00 coperto Coperto 9 6 81 1021 10 N 9.3
Oggi h: 17:00 coperto Coperto 10 6 76 1021 10 N/NO 13
Oggi h: 16:00 coperto Coperto 10 6 76 1021 10 O/NO 13
Oggi h: 15:00 coperto Coperto 10 5 71 1020 10 NO 14.8
Oggi h: 14:00 coperto Coperto 10 7 81 1020 10 N 13
Oggi h: 13:00 nuvoloso_piovaschi Pioggia 9 7 87 1021 10 N 16.7
Oggi h: 12:00 nuvoloso_piovaschi Pioggia 9 6 81 1021 10 N 18.5
Oggi h: 11:00 molto_nuvoloso Molto Nuvoloso 8 6 87 1021 10 N 18.5
Oggi h: 10:00 molto_nuvoloso Molto Nuvoloso 7 5 87 1021 10 N 18.5
Oggi h: 09:00 coperto Coperto 5 5 100 1020 10 N 11.1
Oggi h: 08:00 molto_nuvoloso Molto Nuvoloso 4 4 100 1019 10 N 14.8
Oggi h: 07:00 nuvoloso_piovaschi Pioggia 0 0 63 1019 10 N/NE 9.3
Oggi h: 06:00 nuvoloso_piovaschi Pioggia 4 4 100 1018 10 N 14.8
Oggi h: 05:00 nuvoloso_piovaschi Pioggia 4 4 100 1018 10 O/NO 7.4
Oggi h: 04:00 molto_nuvoloso Molto Nuvoloso 4 4 100 1018 10 N 5.5
Oggi h: 03:00 foschia Foschia 3 3 100 1018 5 N/NE 7.4
Oggi h: 02:00 sereno Sereno 3 3 100 1017 10 N 3.7
Oggi h: 01:29 sereno Sereno 4 4 100 1017 10 N 5.5
Oggi h: 01:00 nebbia Nebbia a tratti 3 3 100 1017 3 N 5.5
Oggi h: 00:00 nuvoloso Nuvoloso 4 4 100 1017 10 N 5.5
Ieri h: 23:00 nuvoloso Nuvoloso 5 5 100 1016 10 N 9.3